Auburndale, Florida
Current Conditions -  °F | °C
As of 11:15 PM on Thursday 27 Nov 2014 (Local Time) from KBOW Reporting Station
Clear Clear  
Wind Chill: 11°   Ceiling: Unl
Heat Index: 11°   Visibility: 10mi
Dew Point:   Wind: 8mph
Humidity: 58%   Direction: 340°NNW
Pressure: 30.3"   Gusts: NA
Location:  28.06°N, 81.78°W
Report Text: KBOW 280415Z AUTO 34007KT 10SM CLR 11/03 A3030 RMK AO2
Loading
Personal Weather Stations






























Interactive Weather Map New forecast layout! Learn more

10-Day Weather Forecast

Advertisements
Track Severe Weather on mobile